Nearby METAR Reports

This page may be slow to load as it queries the National Weather Service for data.

KBIS - Bismarck, North Dakota, USA
Distance from station: S 10mi, 15km
Updated: Fri, 15-Jan-2021 7:52am CST
Overcast
Overcast
 Wind from NNW
Wind: NNW 25 mph , 41 km/h, Gust: 44 mph , 70 km/h
Temperature: 27°F , -3°C
Wind Chill: 12°F , -11°C
Dew Point: 19°F , -7°C
Humidity: 74%
Barometer: 30.08 inHg , 1018.6 hPa
Clouds: Overcast
Visibility: 10 miles , 16 km
Cloud details: Overcast 1700 ft
2021/01/15 13:52 KBIS 151352Z 33022G38KT 10SM OVC017 M03/M07 A3008 RMK AO2 PK WND 33042/1303 UPB29E42 SLP209 P0000 T10331072
KDIK - Dickinson, North Dakota, USA
Distance from station: W 95mi, 154km
Updated: Fri, 15-Jan-2021 8:21am CST
Overcast
Overcast
 Wind from NW
Wind: NW 26 mph , 43 km/h, Gust: 35 mph , 56 km/h
Temperature: 21°F , -6°C
Wind Chill: 4°F , -16°C
Dew Point: 16°F , -9°C
Humidity: 80%
Barometer: 30.11 inHg , 1019.6 hPa
Clouds: Overcast
Visibility: 10 miles , 16 km
Cloud details: Overcast 1400 ft
2021/01/15 14:21 KDIK 151421Z AUTO 32023G30KT 10SM OVC014 M06/M09 A3011 RMK AO2 PK WND 32032/1359 T10561094
 
KXWA - Williston, North Dakota, USA
Distance from station: NNW 2mi, 2km
Updated: Fri, 15-Jan-2021 7:51am CST
Overcast
Overcast
 Wind from NW
Wind: NW 21 mph , 33 km/h, Gust: 26 mph , 43 km/h
Temperature: 21°F , -6°C
Wind Chill: 5°F , -15°C
Dew Point: 16°F , -9°C
Humidity: 80%
Barometer: 30.20 inHg , 1022.7 hPa
Clouds: Overcast
Visibility: 10 miles , 16 km
Cloud details: Overcast 800 ft
2021/01/15 13:51 KXWA 151351Z AUTO 32018G23KT 10SM OVC008 M06/M09 A3020 RMK AO2 PK WND 34030/1305 SLP271 T10611089 $
KFAR - Fargo, North Dakota, USA
Distance from station: NNW 4mi, 7km
Updated: Fri, 15-Jan-2021 7:53am CST
Light snow, Mist, Overcast
Light snow, Mist, Overcast
 Wind from N
Wind: N 29 mph , 46 km/h, Gust: 39 mph , 63 km/h
Temperature: 28°F , -2°C
Wind Chill: 12°F , -11°C
Dew Point: 27°F , -3°C
Humidity: 93%
Barometer: 29.83 inHg , 1010.2 hPa
Summary: Light snow, Mist
Clouds: Overcast
Visibility: 3 miles , 5 km
Cloud details: Overcast 1000 ft
2021/01/15 13:53 KFAR 151353Z 35025G34KT 3SM -SN BR OVC010 M02/M03 A2983 RMK AO2 PK WND 35036/1304 UPB1256E36SNE1256B36 SLP113 P0000 T10171033
 
KGFK - Grand Forks, North Dakota, USA
Distance from station: NNW 76mi, 123km
Updated: Fri, 15-Jan-2021 7:53am CST
Light snow, Mist, Overcast
Light snow, Mist, Overcast
 Wind from N
Wind: N 30 mph , 48 km/h, Gust: 40 mph , 65 km/h
Temperature: 28°F , -2°C
Wind Chill: 12°F , -11°C
Dew Point: 25°F , -4°C
Humidity: 86%
Barometer: 29.88 inHg , 1011.9 hPa
Summary: Light snow, Mist
Clouds: Overcast
Visibility: 5 miles , 8 km
Cloud details: Overcast 1100 ft
2021/01/15 13:53 KGFK 151353Z 35026G35KT 5SM -SN BR OVC011 M02/M04 A2988 RMK AO2 PK WND 35038/1343 SLP133 P0000 T10221044
KMOT - Minot, North Dakota, USA
Distance from station: E 109mi, 175km
Updated: Fri, 15-Jan-2021 7:54am CST
Overcast
Overcast
 Wind from NW
Wind: NW 17 mph , 28 km/h, Gust: 30 mph , 48 km/h
Temperature: 25°F , -4°C
Wind Chill: 12°F , -11°C
Dew Point: 18°F , -8°C
Humidity: 74%
Barometer: 30.12 inHg , 1020 hPa
Clouds: Overcast
Visibility: 10 miles , 16 km
Cloud details: Overcast 1400 ft
2021/01/15 13:54 KMOT 151354Z 32015G26KT 10SM OVC014 M04/M08 A3012 RMK AO2 PK WND 32027/1303 SLP224 T10391078